sensor_id;sensor_type;location;lat;lon;timestamp;P1;durP1;ratioP1;P2;durP2;ratioP2
21546;SDS011;41275;51.912;4.388;2023-02-28T00:02:42;5.60;;;2.85;;
21546;SDS011;41275;51.912;4.388;2023-02-28T00:08:04;5.63;;;3.03;;
21546;SDS011;41275;51.912;4.388;2023-02-28T00:13:25;4.70;;;2.60;;
21546;SDS011;41275;51.912;4.388;2023-02-28T00:18:47;6.40;;;2.35;;
21546;SDS011;41275;51.912;4.388;2023-02-28T00:24:08;5.18;;;1.95;;
21546;SDS011;41275;51.912;4.388;2023-02-28T00:29:29;5.20;;;2.20;;
21546;SDS011;41275;51.912;4.388;2023-02-28T00:34:51;9.57;;;3.10;;
21546;SDS011;41275;51.912;4.388;2023-02-28T00:40:12;6.90;;;2.53;;
21546;SDS011;41275;51.912;4.388;2023-02-28T00:45:33;4.75;;;2.20;;
21546;SDS011;41275;51.912;4.388;2023-02-28T00:50:54;8.13;;;2.17;;
21546;SDS011;41275;51.912;4.388;2023-02-28T00:56:15;4.17;;;2.00;;
21546;SDS011;41275;51.912;4.388;2023-02-28T01:01:37;4.25;;;2.30;;
21546;SDS011;41275;51.912;4.388;2023-02-28T01:06:58;6.90;;;2.53;;
21546;SDS011;41275;51.912;4.388;2023-02-28T01:12:19;7.80;;;2.65;;
21546;SDS011;41275;51.912;4.388;2023-02-28T01:17:40;6.25;;;2.67;;
21546;SDS011;41275;51.912;4.388;2023-02-28T01:23:02;5.50;;;2.80;;
21546;SDS011;41275;51.912;4.388;2023-02-28T01:28:23;5.60;;;2.53;;
21546;SDS011;41275;51.912;4.388;2023-02-28T01:33:44;6.60;;;2.72;;
21546;SDS011;41275;51.912;4.388;2023-02-28T01:39:06;5.85;;;2.22;;
21546;SDS011;41275;51.912;4.388;2023-02-28T01:50:23;6.30;;;2.25;;
21546;SDS011;41275;51.912;4.388;2023-02-28T01:55:49;6.13;;;2.17;;
21546;SDS011;41275;51.912;4.388;2023-02-28T02:01:13;4.88;;;1.92;;
21546;SDS011;41275;51.912;4.388;2023-02-28T02:06:43;7.63;;;2.30;;
21546;SDS011;41275;51.912;4.388;2023-02-28T02:12:11;5.30;;;2.03;;
21546;SDS011;41275;51.912;4.388;2023-02-28T02:17:59;5.30;;;2.17;;
21546;SDS011;41275;51.912;4.388;2023-02-28T02:35:05;5.65;;;1.90;;
21546;SDS011;41275;51.912;4.388;2023-02-28T02:40:47;5.57;;;1.70;;
21546;SDS011;41275;51.912;4.388;2023-02-28T02:46:20;5.82;;;2.20;;
21546;SDS011;41275;51.912;4.388;2023-02-28T02:51:48;5.45;;;1.70;;
21546;SDS011;41275;51.912;4.388;2023-02-28T02:57:13;6.47;;;2.00;;
21546;SDS011;41275;51.912;4.388;2023-02-28T03:02:38;5.10;;;2.08;;
21546;SDS011;41275;51.912;4.388;2023-02-28T03:08:03;7.70;;;2.55;;
21546;SDS011;41275;51.912;4.388;2023-02-28T03:36:52;6.43;;;3.23;;
21546;SDS011;41275;51.912;4.388;2023-02-28T03:42:19;6.17;;;2.60;;
21546;SDS011;41275;51.912;4.388;2023-02-28T03:47:45;6.83;;;2.87;;
21546;SDS011;41275;51.912;4.388;2023-02-28T03:53:29;7.27;;;2.73;;
21546;SDS011;41275;51.912;4.388;2023-02-28T03:59:17;6.27;;;2.40;;
21546;SDS011;41275;51.912;4.388;2023-02-28T04:04:43;5.43;;;2.60;;
21546;SDS011;41275;51.912;4.388;2023-02-28T04:10:09;8.23;;;2.80;;
21546;SDS011;41275;51.912;4.388;2023-02-28T04:15:31;7.45;;;3.33;;
21546;SDS011;41275;51.912;4.388;2023-02-28T04:20:53;6.40;;;2.58;;
21546;SDS011;41275;51.912;4.388;2023-02-28T04:26:14;6.00;;;2.63;;
21546;SDS011;41275;51.912;4.388;2023-02-28T04:31:35;9.10;;;3.05;;
21546;SDS011;41275;51.912;4.388;2023-02-28T04:36:57;5.30;;;2.47;;
21546;SDS011;41275;51.912;4.388;2023-02-28T04:42:18;6.78;;;2.35;;
21546;SDS011;41275;51.912;4.388;2023-02-28T04:47:40;7.93;;;2.87;;
21546;SDS011;41275;51.912;4.388;2023-02-28T04:53:01;8.55;;;3.10;;
21546;SDS011;41275;51.912;4.388;2023-02-28T04:58:22;5.32;;;2.55;;
21546;SDS011;41275;51.912;4.388;2023-02-28T05:03:44;9.00;;;3.03;;
21546;SDS011;41275;51.912;4.388;2023-02-28T05:09:05;5.73;;;2.97;;
21546;SDS011;41275;51.912;4.388;2023-02-28T05:14:26;6.22;;;2.78;;
21546;SDS011;41275;51.912;4.388;2023-02-28T05:19:47;7.00;;;3.70;;
21546;SDS011;41275;51.912;4.388;2023-02-28T05:25:12;7.40;;;3.97;;
21546;SDS011;41275;51.912;4.388;2023-02-28T05:30:37;10.13;;;4.55;;
21546;SDS011;41275;51.912;4.388;2023-02-28T05:35:58;11.45;;;4.90;;
21546;SDS011;41275;51.912;4.388;2023-02-28T05:41:20;9.68;;;5.10;;
21546;SDS011;41275;51.912;4.388;2023-02-28T05:46:41;7.67;;;4.27;;
21546;SDS011;41275;51.912;4.388;2023-02-28T05:52:03;9.18;;;4.75;;
21546;SDS011;41275;51.912;4.388;2023-02-28T05:57:24;9.00;;;4.43;;
21546;SDS011;41275;51.912;4.388;2023-02-28T06:02:46;9.07;;;4.53;;
21546;SDS011;41275;51.912;4.388;2023-02-28T06:08:08;10.50;;;4.68;;
21546;SDS011;41275;51.912;4.388;2023-02-28T06:13:29;8.18;;;3.97;;
21546;SDS011;41275;51.912;4.388;2023-02-28T06:18:51;7.60;;;4.33;;
21546;SDS011;41275;51.912;4.388;2023-02-28T06:24:13;7.25;;;3.35;;
21546;SDS011;41275;51.912;4.388;2023-02-28T06:29:37;8.57;;;3.60;;
21546;SDS011;41275;51.912;4.388;2023-02-28T06:35:00;6.28;;;3.08;;
21546;SDS011;41275;51.912;4.388;2023-02-28T06:40:21;5.90;;;2.80;;
21546;SDS011;41275;51.912;4.388;2023-02-28T06:45:43;6.97;;;3.38;;
21546;SDS011;41275;51.912;4.388;2023-02-28T06:51:06;6.85;;;2.53;;
21546;SDS011;41275;51.912;4.388;2023-02-28T06:56:30;7.63;;;2.70;;
21546;SDS011;41275;51.912;4.388;2023-02-28T07:01:52;9.15;;;2.42;;
21546;SDS011;41275;51.912;4.388;2023-02-28T07:07:13;6.22;;;2.55;;
21546;SDS011;41275;51.912;4.388;2023-02-28T07:12:34;6.83;;;2.63;;
21546;SDS011;41275;51.912;4.388;2023-02-28T07:17:57;13.00;;;3.28;;
21546;SDS011;41275;51.912;4.388;2023-02-28T07:23:18;8.57;;;3.13;;
21546;SDS011;41275;51.912;4.388;2023-02-28T07:28:39;6.93;;;2.88;;
21546;SDS011;41275;51.912;4.388;2023-02-28T07:34:03;6.83;;;3.17;;
21546;SDS011;41275;51.912;4.388;2023-02-28T07:39:24;7.32;;;3.05;;
21546;SDS011;41275;51.912;4.388;2023-02-28T07:44:45;6.85;;;3.00;;
21546;SDS011;41275;51.912;4.388;2023-02-28T07:50:08;6.67;;;2.87;;
21546;SDS011;41275;51.912;4.388;2023-02-28T07:55:30;8.85;;;5.07;;
21546;SDS011;41275;51.912;4.388;2023-02-28T08:00:51;8.73;;;3.88;;
21546;SDS011;41275;51.912;4.388;2023-02-28T08:06:17;7.20;;;3.43;;
21546;SDS011;41275;51.912;4.388;2023-02-28T08:11:40;6.97;;;3.42;;
21546;SDS011;41275;51.912;4.388;2023-02-28T08:17:01;6.20;;;3.00;;
21546;SDS011;41275;51.912;4.388;2023-02-28T08:22:23;5.43;;;2.70;;
21546;SDS011;41275;51.912;4.388;2023-02-28T08:27:44;7.23;;;3.30;;
21546;SDS011;41275;51.912;4.388;2023-02-28T08:33:05;6.70;;;3.65;;
21546;SDS011;41275;51.912;4.388;2023-02-28T08:38:27;8.27;;;4.43;;
21546;SDS011;41275;51.912;4.388;2023-02-28T08:43:48;6.60;;;3.30;;
21546;SDS011;41275;51.912;4.388;2023-02-28T08:49:09;7.28;;;3.47;;
21546;SDS011;41275;51.912;4.388;2023-02-28T08:54:31;5.53;;;3.10;;
21546;SDS011;41275;51.912;4.388;2023-02-28T08:59:53;7.20;;;3.08;;
21546;SDS011;41275;51.912;4.388;2023-02-28T09:05:15;5.63;;;3.20;;
21546;SDS011;41275;51.912;4.388;2023-02-28T09:10:36;6.30;;;3.40;;
21546;SDS011;41275;51.912;4.388;2023-02-28T09:15:58;7.78;;;4.15;;
21546;SDS011;41275;51.912;4.388;2023-02-28T09:21:20;9.43;;;4.25;;
21546;SDS011;41275;51.912;4.388;2023-02-28T09:26:41;7.07;;;3.45;;
21546;SDS011;41275;51.912;4.388;2023-02-28T09:32:03;8.77;;;3.60;;
21546;SDS011;41275;51.912;4.388;2023-02-28T09:37:26;8.45;;;3.88;;
21546;SDS011;41275;51.912;4.388;2023-02-28T09:42:51;11.52;;;4.00;;
21546;SDS011;41275;51.912;4.388;2023-02-28T09:48:16;7.63;;;3.10;;
21546;SDS011;41275;51.912;4.388;2023-02-28T09:53:44;4.63;;;2.57;;
21546;SDS011;41275;51.912;4.388;2023-02-28T09:59:18;6.05;;;2.75;;
21546;SDS011;41275;51.912;4.388;2023-02-28T10:04:54;4.97;;;2.13;;
21546;SDS011;41275;51.912;4.388;2023-02-28T10:16:14;4.57;;;2.10;;
21546;SDS011;41275;51.912;4.388;2023-02-28T10:21:46;6.80;;;1.92;;
21546;SDS011;41275;51.912;4.388;2023-02-28T10:27:16;4.13;;;1.70;;
21546;SDS011;41275;51.912;4.388;2023-02-28T10:32:47;3.87;;;1.90;;
21546;SDS011;41275;51.912;4.388;2023-02-28T10:38:17;4.63;;;1.92;;
21546;SDS011;41275;51.912;4.388;2023-02-28T10:43:44;4.80;;;2.10;;
21546;SDS011;41275;51.912;4.388;2023-02-28T10:49:07;5.18;;;2.10;;
21546;SDS011;41275;51.912;4.388;2023-02-28T10:54:36;4.93;;;2.10;;
21546;SDS011;41275;51.912;4.388;2023-02-28T11:05:38;4.35;;;1.88;;
21546;SDS011;41275;51.912;4.388;2023-02-28T11:11:01;4.90;;;1.85;;
21546;SDS011;41275;51.912;4.388;2023-02-28T11:16:33;3.60;;;1.90;;
21546;SDS011;41275;51.912;4.388;2023-02-28T11:21:58;2.28;;;1.42;;
21546;SDS011;41275;51.912;4.388;2023-02-28T11:27:26;4.18;;;1.85;;
21546;SDS011;41275;51.912;4.388;2023-02-28T11:38:48;3.78;;;1.90;;
21546;SDS011;41275;51.912;4.388;2023-02-28T11:56:03;4.77;;;1.47;;
21546;SDS011;41275;51.912;4.388;2023-02-28T12:01:35;2.90;;;1.50;;
21546;SDS011;41275;51.912;4.388;2023-02-28T12:24:15;2.97;;;1.20;;
21546;SDS011;41275;51.912;4.388;2023-02-28T12:29:38;3.20;;;1.30;;
21546;SDS011;41275;51.912;4.388;2023-02-28T12:35:16;2.57;;;1.37;;
21546;SDS011;41275;51.912;4.388;2023-02-28T12:41:00;2.67;;;1.00;;
21546;SDS011;41275;51.912;4.388;2023-02-28T12:46:29;3.03;;;1.40;;
21546;SDS011;41275;51.912;4.388;2023-02-28T12:51:54;7.25;;;1.63;;
21546;SDS011;41275;51.912;4.388;2023-02-28T13:14:20;4.30;;;1.53;;
21546;SDS011;41275;51.912;4.388;2023-02-28T13:41:43;1.50;;;1.07;;
21546;SDS011;41275;51.912;4.388;2023-02-28T13:52:26;2.97;;;1.30;;
21546;SDS011;41275;51.912;4.388;2023-02-28T14:09:35;2.40;;;1.17;;
21546;SDS011;41275;51.912;4.388;2023-02-28T14:15:01;2.20;;;1.10;;
21546;SDS011;41275;51.912;4.388;2023-02-28T14:20:24;2.63;;;1.60;;
21546;SDS011;41275;51.912;4.388;2023-02-28T14:26:02;2.88;;;1.20;;
21546;SDS011;41275;51.912;4.388;2023-02-28T14:31:46;2.88;;;1.13;;
21546;SDS011;41275;51.912;4.388;2023-02-28T14:37:20;2.65;;;1.42;;
21546;SDS011;41275;51.912;4.388;2023-02-28T14:42:48;2.97;;;1.40;;
21546;SDS011;41275;51.912;4.388;2023-02-28T14:48:16;2.58;;;1.40;;
21546;SDS011;41275;51.912;4.388;2023-02-28T14:53:39;3.03;;;1.20;;
21546;SDS011;41275;51.912;4.388;2023-02-28T14:59:01;3.92;;;1.25;;
21546;SDS011;41275;51.912;4.388;2023-02-28T15:04:25;3.53;;;1.40;;
21546;SDS011;41275;51.912;4.388;2023-02-28T15:15:52;2.55;;;1.30;;
21546;SDS011;41275;51.912;4.388;2023-02-28T15:21:19;8.07;;;3.20;;
21546;SDS011;41275;51.912;4.388;2023-02-28T15:26:45;2.70;;;1.50;;
21546;SDS011;41275;51.912;4.388;2023-02-28T15:32:30;3.27;;;1.50;;
21546;SDS011;41275;51.912;4.388;2023-02-28T15:38:03;2.92;;;1.60;;
21546;SDS011;41275;51.912;4.388;2023-02-28T15:43:38;3.15;;;1.52;;
21546;SDS011;41275;51.912;4.388;2023-02-28T15:49:00;3.72;;;1.40;;
21546;SDS011;41275;51.912;4.388;2023-02-28T15:54:23;2.60;;;1.52;;
21546;SDS011;41275;51.912;4.388;2023-02-28T15:59:58;2.90;;;1.48;;
21546;SDS011;41275;51.912;4.388;2023-02-28T16:05:23;4.00;;;1.60;;
21546;SDS011;41275;51.912;4.388;2023-02-28T16:10:51;2.57;;;1.40;;
21546;SDS011;41275;51.912;4.388;2023-02-28T16:16:16;3.50;;;1.45;;
21546;SDS011;41275;51.912;4.388;2023-02-28T16:21:40;2.45;;;1.33;;
21546;SDS011;41275;51.912;4.388;2023-02-28T16:27:01;3.35;;;1.50;;
21546;SDS011;41275;51.912;4.388;2023-02-28T16:32:22;3.55;;;1.65;;
21546;SDS011;41275;51.912;4.388;2023-02-28T16:37:44;2.63;;;1.38;;
21546;SDS011;41275;51.912;4.388;2023-02-28T16:43:16;6.13;;;1.77;;
21546;SDS011;41275;51.912;4.388;2023-02-28T16:48:39;3.53;;;1.80;;
21546;SDS011;41275;51.912;4.388;2023-02-28T16:54:03;3.77;;;1.97;;
21546;SDS011;41275;51.912;4.388;2023-02-28T16:59:25;3.38;;;1.73;;
21546;SDS011;41275;51.912;4.388;2023-02-28T17:04:48;4.70;;;1.98;;
21546;SDS011;41275;51.912;4.388;2023-02-28T17:10:20;3.15;;;1.80;;
21546;SDS011;41275;51.912;4.388;2023-02-28T17:15:43;4.60;;;2.30;;
21546;SDS011;41275;51.912;4.388;2023-02-28T17:21:13;4.95;;;2.00;;
21546;SDS011;41275;51.912;4.388;2023-02-28T17:26:36;5.70;;;2.20;;
21546;SDS011;41275;51.912;4.388;2023-02-28T17:31:57;4.77;;;2.10;;
21546;SDS011;41275;51.912;4.388;2023-02-28T17:37:18;4.27;;;2.13;;
21546;SDS011;41275;51.912;4.388;2023-02-28T17:42:40;3.90;;;2.22;;
21546;SDS011;41275;51.912;4.388;2023-02-28T17:48:01;5.40;;;2.20;;
21546;SDS011;41275;51.912;4.388;2023-02-28T17:53:23;5.77;;;2.30;;
21546;SDS011;41275;51.912;4.388;2023-02-28T17:58:44;6.03;;;2.40;;
21546;SDS011;41275;51.912;4.388;2023-02-28T18:04:05;4.85;;;2.10;;
21546;SDS011;41275;51.912;4.388;2023-02-28T18:09:26;4.10;;;2.28;;
21546;SDS011;41275;51.912;4.388;2023-02-28T18:14:48;4.70;;;2.50;;
21546;SDS011;41275;51.912;4.388;2023-02-28T18:20:09;4.00;;;2.30;;
21546;SDS011;41275;51.912;4.388;2023-02-28T18:25:31;3.50;;;2.23;;
21546;SDS011;41275;51.912;4.388;2023-02-28T18:30:52;4.53;;;2.53;;
21546;SDS011;41275;51.912;4.388;2023-02-28T18:36:13;6.40;;;2.30;;
21546;SDS011;41275;51.912;4.388;2023-02-28T18:41:36;4.90;;;2.45;;
21546;SDS011;41275;51.912;4.388;2023-02-28T18:46:57;6.07;;;2.60;;
21546;SDS011;41275;51.912;4.388;2023-02-28T18:52:19;5.45;;;2.55;;
21546;SDS011;41275;51.912;4.388;2023-02-28T18:57:40;5.30;;;2.60;;
21546;SDS011;41275;51.912;4.388;2023-02-28T19:03:02;6.27;;;2.80;;
21546;SDS011;41275;51.912;4.388;2023-02-28T19:08:23;5.15;;;2.90;;
21546;SDS011;41275;51.912;4.388;2023-02-28T19:13:45;4.70;;;2.67;;
21546;SDS011;41275;51.912;4.388;2023-02-28T19:19:07;5.90;;;3.13;;
21546;SDS011;41275;51.912;4.388;2023-02-28T19:24:28;6.90;;;3.55;;
21546;SDS011;41275;51.912;4.388;2023-02-28T19:29:50;7.47;;;3.27;;
21546;SDS011;41275;51.912;4.388;2023-02-28T19:35:12;6.93;;;3.20;;
21546;SDS011;41275;51.912;4.388;2023-02-28T19:40:34;8.25;;;3.20;;
21546;SDS011;41275;51.912;4.388;2023-02-28T19:45:57;9.03;;;3.90;;
21546;SDS011;41275;51.912;4.388;2023-02-28T19:51:18;8.25;;;3.40;;
21546;SDS011;41275;51.912;4.388;2023-02-28T19:56:39;7.82;;;3.58;;
21546;SDS011;41275;51.912;4.388;2023-02-28T20:02:00;7.70;;;3.77;;
21546;SDS011;41275;51.912;4.388;2023-02-28T20:07:21;6.63;;;3.70;;
21546;SDS011;41275;51.912;4.388;2023-02-28T20:12:43;5.63;;;3.45;;
21546;SDS011;41275;51.912;4.388;2023-02-28T20:18:04;6.60;;;3.63;;
21546;SDS011;41275;51.912;4.388;2023-02-28T20:23:26;7.07;;;3.80;;
21546;SDS011;41275;51.912;4.388;2023-02-28T20:28:47;8.25;;;4.13;;
21546;SDS011;41275;51.912;4.388;2023-02-28T20:34:08;6.37;;;3.87;;
21546;SDS011;41275;51.912;4.388;2023-02-28T20:39:30;7.05;;;4.43;;
21546;SDS011;41275;51.912;4.388;2023-02-28T20:44:51;11.25;;;5.05;;
21546;SDS011;41275;51.912;4.388;2023-02-28T20:50:12;8.87;;;4.40;;
21546;SDS011;41275;51.912;4.388;2023-02-28T20:55:34;20.70;;;9.13;;
21546;SDS011;41275;51.912;4.388;2023-02-28T21:00:59;9.38;;;5.40;;
21546;SDS011;41275;51.912;4.388;2023-02-28T21:06:25;12.20;;;7.18;;
21546;SDS011;41275;51.912;4.388;2023-02-28T21:11:51;12.35;;;6.25;;
21546;SDS011;41275;51.912;4.388;2023-02-28T21:17:13;12.27;;;6.07;;
21546;SDS011;41275;51.912;4.388;2023-02-28T21:22:34;10.33;;;6.40;;
21546;SDS011;41275;51.912;4.388;2023-02-28T21:27:58;12.17;;;7.33;;
21546;SDS011;41275;51.912;4.388;2023-02-28T21:33:19;11.43;;;6.10;;
21546;SDS011;41275;51.912;4.388;2023-02-28T21:38:41;12.63;;;7.05;;
21546;SDS011;41275;51.912;4.388;2023-02-28T21:44:03;11.05;;;6.13;;
21546;SDS011;41275;51.912;4.388;2023-02-28T21:49:25;9.82;;;5.95;;
21546;SDS011;41275;51.912;4.388;2023-02-28T21:54:46;9.93;;;5.77;;
21546;SDS011;41275;51.912;4.388;2023-02-28T22:00:10;11.23;;;6.80;;
21546;SDS011;41275;51.912;4.388;2023-02-28T22:05:32;11.20;;;7.10;;
21546;SDS011;41275;51.912;4.388;2023-02-28T22:10:53;14.02;;;7.82;;
21546;SDS011;41275;51.912;4.388;2023-02-28T22:16:15;13.25;;;7.18;;
21546;SDS011;41275;51.912;4.388;2023-02-28T22:21:39;10.27;;;6.27;;
21546;SDS011;41275;51.912;4.388;2023-02-28T22:27:01;11.55;;;6.53;;
21546;SDS011;41275;51.912;4.388;2023-02-28T22:32:22;10.50;;;6.60;;
21546;SDS011;41275;51.912;4.388;2023-02-28T22:37:43;12.37;;;6.60;;
21546;SDS011;41275;51.912;4.388;2023-02-28T22:43:09;11.73;;;6.43;;
21546;SDS011;41275;51.912;4.388;2023-02-28T22:48:30;10.23;;;6.25;;
21546;SDS011;41275;51.912;4.388;2023-02-28T22:53:53;11.63;;;6.75;;
21546;SDS011;41275;51.912;4.388;2023-02-28T22:59:15;13.03;;;8.50;;
21546;SDS011;41275;51.912;4.388;2023-02-28T23:04:36;15.45;;;8.20;;
21546;SDS011;41275;51.912;4.388;2023-02-28T23:09:58;14.10;;;8.55;;
21546;SDS011;41275;51.912;4.388;2023-02-28T23:15:19;14.30;;;7.90;;
21546;SDS011;41275;51.912;4.388;2023-02-28T23:20:43;15.67;;;8.90;;
21546;SDS011;41275;51.912;4.388;2023-02-28T23:26:07;14.73;;;8.60;;
21546;SDS011;41275;51.912;4.388;2023-02-28T23:31:28;14.77;;;9.40;;
21546;SDS011;41275;51.912;4.388;2023-02-28T23:36:49;14.33;;;8.77;;
21546;SDS011;41275;51.912;4.388;2023-02-28T23:42:10;13.80;;;7.68;;
21546;SDS011;41275;51.912;4.388;2023-02-28T23:47:32;12.85;;;7.97;;
21546;SDS011;41275;51.912;4.388;2023-02-28T23:52:53;13.68;;;7.45;;
21546;SDS011;41275;51.912;4.388;2023-02-28T23:58:14;11.75;;;8.05;;
